sensor_id;sensor_type;location;lat;lon;timestamp;pressure;altitude;pressure_sealevel;temperature;humidity
60055;BME280;45930;53.514;55.904;2023-06-10T00:00:01;49001.25;;;-149.77;68.12
60055;BME280;45930;53.514;55.904;2023-06-10T00:01:02;49007.19;;;-149.77;68.02
60055;BME280;45930;53.514;55.904;2023-06-10T00:02:03;48987.38;;;-149.77;68.80
60055;BME280;45930;53.514;55.904;2023-06-10T00:03:04;48957.66;;;-149.77;69.07
60055;BME280;45930;53.514;55.904;2023-06-10T00:04:05;49003.22;;;-149.77;68.83
60055;BME280;45930;53.514;55.904;2023-06-10T00:05:06;48953.72;;;-149.77;69.42
60055;BME280;45930;53.514;55.904;2023-06-10T00:06:08;48969.56;;;-149.77;69.98
60055;BME280;45930;53.514;55.904;2023-06-10T00:07:08;48961.63;;;-149.77;70.71
60055;BME280;45930;53.514;55.904;2023-06-10T00:08:10;48947.75;;;-149.77;71.63
60055;BME280;45930;53.514;55.904;2023-06-10T00:09:11;48949.75;;;-149.77;71.88
60055;BME280;45930;53.514;55.904;2023-06-10T00:10:14;48937.88;;;-149.77;71.82
60055;BME280;45930;53.514;55.904;2023-06-10T00:11:16;48939.84;;;-149.77;71.96
60055;BME280;45930;53.514;55.904;2023-06-10T00:12:16;48961.63;;;-149.77;71.74
60055;BME280;45930;53.514;55.904;2023-06-10T00:13:18;48927.97;;;-149.77;71.69
60055;BME280;45930;53.514;55.904;2023-06-10T00:14:19;48949.75;;;-149.77;71.86
60055;BME280;45930;53.514;55.904;2023-06-10T00:15:19;48894.28;;;-149.77;72.89
60055;BME280;45930;53.514;55.904;2023-06-10T00:16:20;48906.16;;;-149.77;73.63
60055;BME280;45930;53.514;55.904;2023-06-10T00:17:21;48898.25;;;-149.77;73.63
60055;BME280;45930;53.514;55.904;2023-06-10T00:18:23;48908.16;;;-149.77;73.59
60055;BME280;45930;53.514;55.904;2023-06-10T00:19:24;48908.16;;;-149.77;74.26
60055;BME280;45930;53.514;55.904;2023-06-10T00:20:30;48933.91;;;-149.77;70.84
60055;BME280;45930;53.514;55.904;2023-06-10T00:21:32;48937.88;;;-149.77;70.53
60055;BME280;45930;53.514;55.904;2023-06-10T00:22:38;48943.81;;;-149.77;71.29
60055;BME280;45930;53.514;55.904;2023-06-10T00:23:39;48927.97;;;-149.77;72.10
60055;BME280;45930;53.514;55.904;2023-06-10T00:24:41;48908.16;;;-149.77;71.97
60055;BME280;45930;53.514;55.904;2023-06-10T00:25:42;48945.78;;;-149.77;72.16
60055;BME280;45930;53.514;55.904;2023-06-10T00:26:43;48925.97;;;-149.77;72.44
60055;BME280;45930;53.514;55.904;2023-06-10T00:27:44;48908.16;;;-149.77;72.60
60055;BME280;45930;53.514;55.904;2023-06-10T00:28:45;48937.88;;;-149.77;72.31
60055;BME280;45930;53.514;55.904;2023-06-10T00:29:46;48918.06;;;-149.77;71.74
60055;BME280;45930;53.514;55.904;2023-06-10T00:30:47;48920.03;;;-149.77;71.05
60055;BME280;45930;53.514;55.904;2023-06-10T00:31:47;48925.97;;;-149.77;70.41
60055;BME280;45930;53.514;55.904;2023-06-10T00:32:48;48937.88;;;-149.77;69.76
60055;BME280;45930;53.514;55.904;2023-06-10T00:33:49;48957.66;;;-149.77;69.53
60055;BME280;45930;53.514;55.904;2023-06-10T00:34:49;48955.69;;;-149.77;69.07
60055;BME280;45930;53.514;55.904;2023-06-10T00:35:50;48973.50;;;-149.77;68.58
60055;BME280;45930;53.514;55.904;2023-06-10T00:36:51;48997.28;;;-149.77;67.80
60055;BME280;45930;53.514;55.904;2023-06-10T00:37:52;49003.22;;;-149.77;67.09
60055;BME280;45930;53.514;55.904;2023-06-10T00:38:52;48991.34;;;-149.77;66.10
60055;BME280;45930;53.514;55.904;2023-06-10T00:39:53;48993.31;;;-149.77;66.01
60055;BME280;45930;53.514;55.904;2023-06-10T00:40:54;49013.13;;;-149.77;66.11
60055;BME280;45930;53.514;55.904;2023-06-10T00:41:55;48983.41;;;-149.77;66.77
60055;BME280;45930;53.514;55.904;2023-06-10T00:42:56;49001.25;;;-149.77;66.97
60055;BME280;45930;53.514;55.904;2023-06-10T00:43:57;48989.34;;;-149.77;66.63
60055;BME280;45930;53.514;55.904;2023-06-10T00:44:57;48961.63;;;-149.77;67.21
60055;BME280;45930;53.514;55.904;2023-06-10T00:45:59;49017.09;;;-149.77;67.78
60055;BME280;45930;53.514;55.904;2023-06-10T00:47:00;48981.44;;;-149.77;68.25
60055;BME280;45930;53.514;55.904;2023-06-10T00:48:01;48999.25;;;-149.77;67.73
60055;BME280;45930;53.514;55.904;2023-06-10T00:49:02;48987.38;;;-149.77;68.06
60055;BME280;45930;53.514;55.904;2023-06-10T00:50:04;48983.41;;;-149.77;68.63
60055;BME280;45930;53.514;55.904;2023-06-10T00:51:05;48991.34;;;-149.77;69.24
60055;BME280;45930;53.514;55.904;2023-06-10T00:52:07;48979.47;;;-149.77;69.50
60055;BME280;45930;53.514;55.904;2023-06-10T00:53:09;48973.50;;;-149.77;69.83
60055;BME280;45930;53.514;55.904;2023-06-10T00:54:10;48957.66;;;-149.77;70.19
60055;BME280;45930;53.514;55.904;2023-06-10T00:55:16;48947.75;;;-149.77;70.22
60055;BME280;45930;53.514;55.904;2023-06-10T00:56:18;48945.78;;;-149.77;71.06
60055;BME280;45930;53.514;55.904;2023-06-10T00:57:19;48922.03;;;-149.77;72.41
60055;BME280;45930;53.514;55.904;2023-06-10T00:58:22;48912.13;;;-149.77;72.90
60055;BME280;45930;53.514;55.904;2023-06-10T00:59:23;48880.44;;;-149.77;73.54
60055;BME280;45930;53.514;55.904;2023-06-10T01:00:25;48884.38;;;-149.77;74.12
60055;BME280;45930;53.514;55.904;2023-06-10T01:01:28;48894.28;;;-149.77;74.25
60055;BME280;45930;53.514;55.904;2023-06-10T01:02:30;48866.56;;;-149.77;73.71
60055;BME280;45930;53.514;55.904;2023-06-10T01:03:30;48904.19;;;-149.77;73.31
60055;BME280;45930;53.514;55.904;2023-06-10T01:04:33;48888.34;;;-149.77;72.71
60055;BME280;45930;53.514;55.904;2023-06-10T01:05:34;48894.28;;;-149.77;71.85
60055;BME280;45930;53.514;55.904;2023-06-10T01:06:57;48953.72;;;-149.77;68.86
60055;BME280;45930;53.514;55.904;2023-06-10T01:08:07;48961.63;;;-149.77;69.96
60055;BME280;45930;53.514;55.904;2023-06-10T01:09:23;48904.19;;;-149.77;70.52
60055;BME280;45930;53.514;55.904;2023-06-10T01:10:32;48916.06;;;-149.77;71.08
60055;BME280;45930;53.514;55.904;2023-06-10T01:11:37;48894.28;;;-149.77;71.37
60055;BME280;45930;53.514;55.904;2023-06-10T01:12:55;48888.34;;;-149.77;71.30
60055;BME280;45930;53.514;55.904;2023-06-10T01:13:58;48922.03;;;-149.77;71.05
60055;BME280;45930;53.514;55.904;2023-06-10T01:15:00;48914.09;;;-149.77;70.80
60055;BME280;45930;53.514;55.904;2023-06-10T01:16:01;48894.28;;;-149.77;70.84
60055;BME280;45930;53.514;55.904;2023-06-10T01:17:03;48920.03;;;-149.77;70.78
60055;BME280;45930;53.514;55.904;2023-06-10T01:18:07;48898.25;;;-149.77;71.28
60055;BME280;45930;53.514;55.904;2023-06-10T01:19:11;48902.22;;;-149.77;71.71
60055;BME280;45930;53.514;55.904;2023-06-10T01:20:13;48878.44;;;-149.77;71.88
60055;BME280;45930;53.514;55.904;2023-06-10T01:21:20;48894.28;;;-149.77;71.74
60055;BME280;45930;53.514;55.904;2023-06-10T01:22:25;48894.28;;;-149.77;71.15
60055;BME280;45930;53.514;55.904;2023-06-10T01:23:28;48910.13;;;-149.77;70.37
60055;BME280;45930;53.514;55.904;2023-06-10T01:24:29;48904.19;;;-149.77;70.51
60055;BME280;45930;53.514;55.904;2023-06-10T01:25:37;48910.13;;;-149.77;70.46
60055;BME280;45930;53.514;55.904;2023-06-10T01:26:38;48860.63;;;-149.77;70.59
60055;BME280;45930;53.514;55.904;2023-06-10T01:27:42;48890.31;;;-149.77;71.05
60055;BME280;45930;53.514;55.904;2023-06-10T01:28:54;48892.31;;;-149.77;71.10
60055;BME280;45930;53.514;55.904;2023-06-10T01:30:04;48882.41;;;-149.77;71.60
60055;BME280;45930;53.514;55.904;2023-06-10T01:31:18;48852.69;;;-149.77;71.93
60055;BME280;45930;53.514;55.904;2023-06-10T01:32:27;48870.53;;;-149.77;72.15
60055;BME280;45930;53.514;55.904;2023-06-10T01:33:35;48868.53;;;-149.77;72.54
60055;BME280;45930;53.514;55.904;2023-06-10T01:34:37;48858.63;;;-149.77;72.87
60055;BME280;45930;53.514;55.904;2023-06-10T01:35:41;48856.66;;;-149.77;72.83
60055;BME280;45930;53.514;55.904;2023-06-10T01:36:48;48842.78;;;-149.77;72.43
60055;BME280;45930;53.514;55.904;2023-06-10T01:37:53;48862.59;;;-149.77;72.59
60055;BME280;45930;53.514;55.904;2023-06-10T01:38:55;48842.78;;;-149.77;72.92
60055;BME280;45930;53.514;55.904;2023-06-10T01:40:00;48844.78;;;-149.77;72.81
60055;BME280;45930;53.514;55.904;2023-06-10T01:41:04;48842.78;;;-149.77;73.27
60055;BME280;45930;53.514;55.904;2023-06-10T01:42:06;48838.84;;;-149.77;73.44
60055;BME280;45930;53.514;55.904;2023-06-10T01:43:07;48819.03;;;-149.77;73.73
60055;BME280;45930;53.514;55.904;2023-06-10T01:44:08;48834.88;;;-149.77;73.74
60055;BME280;45930;53.514;55.904;2023-06-10T01:45:10;48842.78;;;-149.77;73.97
60055;BME280;45930;53.514;55.904;2023-06-10T01:46:11;48819.03;;;-149.77;73.78
60055;BME280;45930;53.514;55.904;2023-06-10T01:47:12;48854.69;;;-149.77;73.00
60055;BME280;45930;53.514;55.904;2023-06-10T01:48:12;48840.81;;;-149.77;73.00
60055;BME280;45930;53.514;55.904;2023-06-10T01:49:13;48826.94;;;-149.77;73.08
60055;BME280;45930;53.514;55.904;2023-06-10T01:50:14;48809.13;;;-149.77;72.69
60055;BME280;45930;53.514;55.904;2023-06-10T01:51:16;48819.03;;;-149.77;73.10
60055;BME280;45930;53.514;55.904;2023-06-10T01:52:17;48860.63;;;-149.77;72.81
60055;BME280;45930;53.514;55.904;2023-06-10T01:53:18;48842.78;;;-149.77;72.40
60055;BME280;45930;53.514;55.904;2023-06-10T01:54:19;48838.84;;;-149.77;72.52
60055;BME280;45930;53.514;55.904;2023-06-10T01:55:20;48836.84;;;-149.77;72.81
60055;BME280;45930;53.514;55.904;2023-06-10T01:56:21;48823.00;;;-149.77;73.01
60055;BME280;45930;53.514;55.904;2023-06-10T01:57:21;48819.03;;;-149.77;73.00
60055;BME280;45930;53.514;55.904;2023-06-10T01:58:22;48824.97;;;-149.77;73.20
60055;BME280;45930;53.514;55.904;2023-06-10T01:59:23;48809.13;;;-149.77;72.78
60055;BME280;45930;53.514;55.904;2023-06-10T02:00:24;48821.00;;;-149.77;72.32
60055;BME280;45930;53.514;55.904;2023-06-10T02:01:25;48854.69;;;-149.77;71.14
60055;BME280;45930;53.514;55.904;2023-06-10T02:02:26;48834.88;;;-149.77;69.56
60055;BME280;45930;53.514;55.904;2023-06-10T02:03:27;48874.47;;;-149.77;68.56
60055;BME280;45930;53.514;55.904;2023-06-10T02:04:27;48872.50;;;-149.77;67.90
60055;BME280;45930;53.514;55.904;2023-06-10T02:05:28;48878.44;;;-149.77;67.24
60055;BME280;45930;53.514;55.904;2023-06-10T02:06:29;48886.38;;;-149.77;67.08
60055;BME280;45930;53.514;55.904;2023-06-10T02:07:30;48874.47;;;-149.77;68.17
60055;BME280;45930;53.514;55.904;2023-06-10T02:08:31;48886.38;;;-149.77;67.24
60055;BME280;45930;53.514;55.904;2023-06-10T02:09:32;48882.41;;;-149.77;66.50
60055;BME280;45930;53.514;55.904;2023-06-10T02:10:35;48876.47;;;-149.77;66.04
60055;BME280;45930;53.514;55.904;2023-06-10T02:11:36;48904.19;;;-149.77;65.16
60055;BME280;45930;53.514;55.904;2023-06-10T02:12:37;48925.97;;;-149.77;64.33
60055;BME280;45930;53.514;55.904;2023-06-10T02:13:38;48922.03;;;-149.77;64.40
60055;BME280;45930;53.514;55.904;2023-06-10T02:14:39;48918.06;;;-149.77;62.99
60055;BME280;45930;53.514;55.904;2023-06-10T02:15:39;48953.72;;;-149.77;62.00
60055;BME280;45930;53.514;55.904;2023-06-10T02:16:40;48951.72;;;-149.77;62.18
60055;BME280;45930;53.514;55.904;2023-06-10T02:17:42;48961.63;;;-149.77;62.45
60055;BME280;45930;53.514;55.904;2023-06-10T02:18:43;48949.75;;;-149.77;62.59
60055;BME280;45930;53.514;55.904;2023-06-10T02:19:44;48947.75;;;-149.77;63.24
60055;BME280;45930;53.514;55.904;2023-06-10T02:20:47;48939.84;;;-149.77;63.25
60055;BME280;45930;53.514;55.904;2023-06-10T02:21:49;48947.75;;;-149.77;63.04
60055;BME280;45930;53.514;55.904;2023-06-10T02:22:50;48945.78;;;-149.77;62.77
60055;BME280;45930;53.514;55.904;2023-06-10T02:23:51;48945.78;;;-149.77;62.57
60055;BME280;45930;53.514;55.904;2023-06-10T02:24:52;48953.72;;;-149.77;62.68
60055;BME280;45930;53.514;55.904;2023-06-10T02:25:52;48920.03;;;-149.77;62.67
60055;BME280;45930;53.514;55.904;2023-06-10T02:26:53;48949.75;;;-149.77;62.30
60055;BME280;45930;53.514;55.904;2023-06-10T02:27:54;48951.72;;;-149.77;62.39
60055;BME280;45930;53.514;55.904;2023-06-10T02:28:55;48981.44;;;-149.77;62.79
60055;BME280;45930;53.514;55.904;2023-06-10T02:29:56;48941.81;;;-149.77;63.12
60055;BME280;45930;53.514;55.904;2023-06-10T02:30:57;48953.72;;;-149.77;63.29
60055;BME280;45930;53.514;55.904;2023-06-10T02:31:59;48961.63;;;-149.77;63.44
60055;BME280;45930;53.514;55.904;2023-06-10T02:33:00;48945.78;;;-149.77;63.41
60055;BME280;45930;53.514;55.904;2023-06-10T02:34:01;48945.78;;;-149.77;63.01
60055;BME280;45930;53.514;55.904;2023-06-10T02:35:03;48935.88;;;-149.77;62.50
60055;BME280;45930;53.514;55.904;2023-06-10T02:36:04;48961.63;;;-149.77;62.20
60055;BME280;45930;53.514;55.904;2023-06-10T02:37:05;48945.78;;;-149.77;61.90
60055;BME280;45930;53.514;55.904;2023-06-10T02:38:06;48977.47;;;-149.77;61.65
60055;BME280;45930;53.514;55.904;2023-06-10T02:39:07;48959.66;;;-149.77;60.90
60055;BME280;45930;53.514;55.904;2023-06-10T02:40:09;48963.63;;;-149.77;60.28
60055;BME280;45930;53.514;55.904;2023-06-10T02:41:10;48963.63;;;-149.77;59.67
60055;BME280;45930;53.514;55.904;2023-06-10T02:42:11;48977.47;;;-149.77;59.27
60055;BME280;45930;53.514;55.904;2023-06-10T02:43:12;49013.13;;;-149.77;59.30
60055;BME280;45930;53.514;55.904;2023-06-10T02:44:13;48947.75;;;-149.77;59.20
60055;BME280;45930;53.514;55.904;2023-06-10T02:45:13;49015.09;;;-149.77;59.44
60055;BME280;45930;53.514;55.904;2023-06-10T02:46:14;48993.31;;;-149.77;58.55
60055;BME280;45930;53.514;55.904;2023-06-10T02:47:15;49011.16;;;-149.77;58.06
60055;BME280;45930;53.514;55.904;2023-06-10T02:48:16;48997.28;;;-149.77;57.94
60055;BME280;45930;53.514;55.904;2023-06-10T02:49:16;49032.94;;;-149.77;57.76
60055;BME280;45930;53.514;55.904;2023-06-10T02:50:17;48987.38;;;-149.77;57.66
60055;BME280;45930;53.514;55.904;2023-06-10T02:51:18;49011.16;;;-149.77;57.88
60055;BME280;45930;53.514;55.904;2023-06-10T02:52:19;49023.03;;;-149.77;57.62
60055;BME280;45930;53.514;55.904;2023-06-10T02:53:20;48969.56;;;-149.77;57.66
60055;BME280;45930;53.514;55.904;2023-06-10T02:54:21;48969.56;;;-149.77;57.54
60055;BME280;45930;53.514;55.904;2023-06-10T02:55:23;49025.00;;;-149.77;57.19
60055;BME280;45930;53.514;55.904;2023-06-10T02:56:26;48985.41;;;-149.77;57.38
60055;BME280;45930;53.514;55.904;2023-06-10T02:57:27;48999.25;;;-149.77;57.58
60055;BME280;45930;53.514;55.904;2023-06-10T02:58:28;48997.28;;;-149.77;57.60
60055;BME280;45930;53.514;55.904;2023-06-10T02:59:29;49001.25;;;-149.77;56.94
60055;BME280;45930;53.514;55.904;2023-06-10T03:00:29;48999.25;;;-149.77;56.87
60055;BME280;45930;53.514;55.904;2023-06-10T03:01:31;48985.41;;;-149.77;56.25
60055;BME280;45930;53.514;55.904;2023-06-10T03:02:32;49013.13;;;-149.77;56.00
60055;BME280;45930;53.514;55.904;2023-06-10T03:03:32;48997.28;;;-149.77;56.00
60055;BME280;45930;53.514;55.904;2023-06-10T03:04:34;48999.25;;;-149.77;55.30
60055;BME280;45930;53.514;55.904;2023-06-10T03:05:35;49064.63;;;-149.77;52.00
60055;BME280;45930;53.514;55.904;2023-06-10T03:06:36;49076.50;;;-149.77;50.24
60055;BME280;45930;53.514;55.904;2023-06-10T03:07:37;49124.03;;;-149.77;49.92
60055;BME280;45930;53.514;55.904;2023-06-10T03:08:38;49116.13;;;-149.77;49.51
60055;BME280;45930;53.514;55.904;2023-06-10T03:09:38;49086.41;;;-149.77;49.42
60055;BME280;45930;53.514;55.904;2023-06-10T03:10:39;49078.50;;;-149.77;48.74
60055;BME280;45930;53.514;55.904;2023-06-10T03:11:40;49074.53;;;-149.77;48.41
60055;BME280;45930;53.514;55.904;2023-06-10T03:12:41;49088.41;;;-149.77;47.58
60055;BME280;45930;53.514;55.904;2023-06-10T03:13:42;49112.16;;;-149.77;46.94
60055;BME280;45930;53.514;55.904;2023-06-10T03:14:42;49114.16;;;-149.77;46.46
60055;BME280;45930;53.514;55.904;2023-06-10T03:15:43;49124.03;;;-149.77;46.14
60055;BME280;45930;53.514;55.904;2023-06-10T03:16:45;49124.03;;;-149.77;45.99
60055;BME280;45930;53.514;55.904;2023-06-10T03:17:46;49147.81;;;-149.77;46.19
60055;BME280;45930;53.514;55.904;2023-06-10T03:18:46;49147.81;;;-149.77;45.99
60055;BME280;45930;53.514;55.904;2023-06-10T03:19:47;49167.63;;;-149.77;45.31
60055;BME280;45930;53.514;55.904;2023-06-10T03:20:48;49153.75;;;-149.77;45.21
60055;BME280;45930;53.514;55.904;2023-06-10T03:22:07;49167.63;;;-149.77;45.13
60055;BME280;45930;53.514;55.904;2023-06-10T03:23:09;49149.78;;;-149.77;45.08
60055;BME280;45930;53.514;55.904;2023-06-10T03:24:10;49139.91;;;-149.77;44.62
60055;BME280;45930;53.514;55.904;2023-06-10T03:25:11;49157.72;;;-149.77;44.13
60055;BME280;45930;53.514;55.904;2023-06-10T03:26:14;49167.63;;;-149.77;43.88
60055;BME280;45930;53.514;55.904;2023-06-10T03:27:16;49179.50;;;-149.77;43.91
60055;BME280;45930;53.514;55.904;2023-06-10T03:28:17;49191.38;;;-149.77;43.55
60055;BME280;45930;53.514;55.904;2023-06-10T03:29:17;49193.38;;;-149.77;42.86
60055;BME280;45930;53.514;55.904;2023-06-10T03:30:18;49195.34;;;-149.77;42.87
60055;BME280;45930;53.514;55.904;2023-06-10T03:31:19;49197.34;;;-149.77;42.67
60055;BME280;45930;53.514;55.904;2023-06-10T03:32:20;49207.25;;;-149.77;42.50
60055;BME280;45930;53.514;55.904;2023-06-10T03:33:20;49209.22;;;-149.77;42.42
60055;BME280;45930;53.514;55.904;2023-06-10T03:34:21;49213.19;;;-149.77;42.55
60055;BME280;45930;53.514;55.904;2023-06-10T03:35:22;49177.53;;;-149.77;42.54
60055;BME280;45930;53.514;55.904;2023-06-10T03:36:23;49191.38;;;-149.77;42.57
60055;BME280;45930;53.514;55.904;2023-06-10T03:37:24;49195.34;;;-149.77;42.65
60055;BME280;45930;53.514;55.904;2023-06-10T03:38:25;49195.34;;;-149.77;42.02
60055;BME280;45930;53.514;55.904;2023-06-10T03:39:26;49191.38;;;-149.77;42.20
60055;BME280;45930;53.514;55.904;2023-06-10T03:40:29;49203.28;;;-149.77;42.17
60055;BME280;45930;53.514;55.904;2023-06-10T03:41:32;49203.28;;;-149.77;41.92
60055;BME280;45930;53.514;55.904;2023-06-10T03:42:33;49203.28;;;-149.77;41.78
60055;BME280;45930;53.514;55.904;2023-06-10T03:43:34;49207.25;;;-149.77;42.13
60055;BME280;45930;53.514;55.904;2023-06-10T03:44:34;49215.16;;;-149.77;41.90
60055;BME280;45930;53.514;55.904;2023-06-10T03:45:35;49195.34;;;-149.77;41.37
60055;BME280;45930;53.514;55.904;2023-06-10T03:46:36;49203.28;;;-149.77;41.31
60055;BME280;45930;53.514;55.904;2023-06-10T03:47:37;49240.91;;;-149.77;41.46
60055;BME280;45930;53.514;55.904;2023-06-10T03:48:38;49227.03;;;-149.77;41.41
60055;BME280;45930;53.514;55.904;2023-06-10T03:49:40;49217.13;;;-149.77;41.04
60055;BME280;45930;53.514;55.904;2023-06-10T03:50:40;49189.41;;;-149.77;40.71
60055;BME280;45930;53.514;55.904;2023-06-10T03:51:41;49246.84;;;-149.77;40.68
60055;BME280;45930;53.514;55.904;2023-06-10T03:52:42;49227.03;;;-149.77;40.60
60055;BME280;45930;53.514;55.904;2023-06-10T03:53:43;49248.84;;;-149.77;40.66
60055;BME280;45930;53.514;55.904;2023-06-10T03:54:43;49221.09;;;-149.77;40.32
60055;BME280;45930;53.514;55.904;2023-06-10T03:55:44;49211.19;;;-149.77;40.58
60055;BME280;45930;53.514;55.904;2023-06-10T03:56:46;49223.09;;;-149.77;40.65
60055;BME280;45930;53.514;55.904;2023-06-10T03:57:49;49234.97;;;-149.77;40.79
60055;BME280;45930;53.514;55.904;2023-06-10T03:58:50;49234.97;;;-149.77;40.76
60055;BME280;45930;53.514;55.904;2023-06-10T03:59:51;49233.00;;;-149.77;40.65
60055;BME280;45930;53.514;55.904;2023-06-10T04:00:52;49227.03;;;-149.77;40.62
60055;BME280;45930;53.514;55.904;2023-06-10T04:01:53;49217.13;;;-149.77;40.56
60055;BME280;45930;53.514;55.904;2023-06-10T04:02:53;49227.03;;;-149.77;40.55
60055;BME280;45930;53.514;55.904;2023-06-10T04:03:58;49207.25;;;-149.77;40.53
60055;BME280;45930;53.514;55.904;2023-06-10T04:04:59;49242.91;;;-149.77;40.61
60055;BME280;45930;53.514;55.904;2023-06-10T04:05:59;49238.94;;;-149.77;40.66
60055;BME280;45930;53.514;55.904;2023-06-10T04:07:00;49231.00;;;-149.77;40.89
60055;BME280;45930;53.514;55.904;2023-06-10T04:08:01;49191.38;;;-149.77;40.84
60055;BME280;45930;53.514;55.904;2023-06-10T04:09:02;49244.88;;;-149.77;40.61
60055;BME280;45930;53.514;55.904;2023-06-10T04:10:03;49205.25;;;-149.77;40.59
60055;BME280;45930;53.514;55.904;2023-06-10T04:11:05;49203.28;;;-149.77;40.49
60055;BME280;45930;53.514;55.904;2023-06-10T04:12:06;49215.16;;;-149.77;40.44
60055;BME280;45930;53.514;55.904;2023-06-10T04:13:09;49244.88;;;-149.77;40.31
60055;BME280;45930;53.514;55.904;2023-06-10T04:14:10;49207.25;;;-149.77;40.31
60055;BME280;45930;53.514;55.904;2023-06-10T04:15:11;49234.97;;;-149.77;40.39
60055;BME280;45930;53.514;55.904;2023-06-10T04:16:11;49219.13;;;-149.77;40.56
60055;BME280;45930;53.514;55.904;2023-06-10T04:17:12;49229.03;;;-149.77;40.50
60055;BME280;45930;53.514;55.904;2023-06-10T04:18:13;49238.94;;;-149.77;40.56
60055;BME280;45930;53.514;55.904;2023-06-10T04:19:14;49217.13;;;-149.77;40.76
60055;BME280;45930;53.514;55.904;2023-06-10T04:20:14;49234.97;;;-149.77;40.74
60055;BME280;45930;53.514;55.904;2023-06-10T04:21:16;49203.28;;;-149.77;40.81
60055;BME280;45930;53.514;55.904;2023-06-10T04:22:16;49234.97;;;-149.77;40.64
60055;BME280;45930;53.514;55.904;2023-06-10T04:23:18;49246.84;;;-149.77;40.88
60055;BME280;45930;53.514;55.904;2023-06-10T04:24:19;49240.91;;;-149.77;40.77
60055;BME280;45930;53.514;55.904;2023-06-10T04:25:19;49246.84;;;-149.77;40.99
60055;BME280;45930;53.514;55.904;2023-06-10T04:26:20;49223.09;;;-149.77;40.31
60055;BME280;45930;53.514;55.904;2023-06-10T04:27:22;49258.75;;;-149.77;40.03
60055;BME280;45930;53.514;55.904;2023-06-10T04:28:23;49246.84;;;-149.77;39.96
60055;BME280;45930;53.514;55.904;2023-06-10T04:29:24;49246.84;;;-149.77;39.81
60055;BME280;45930;53.514;55.904;2023-06-10T04:30:24;49229.03;;;-149.77;40.06
60055;BME280;45930;53.514;55.904;2023-06-10T04:31:25;49231.00;;;-149.77;39.93
60055;BME280;45930;53.514;55.904;2023-06-10T04:32:26;49233.00;;;-149.77;40.03
60055;BME280;45930;53.514;55.904;2023-06-10T04:33:27;49266.66;;;-149.77;40.08
60055;BME280;45930;53.514;55.904;2023-06-10T04:34:28;49250.81;;;-149.77;40.11
60055;BME280;45930;53.514;55.904;2023-06-10T04:35:29;49244.88;;;-149.77;40.20
60055;BME280;45930;53.514;55.904;2023-06-10T04:36:30;49236.94;;;-149.77;40.53
60055;BME280;45930;53.514;55.904;2023-06-10T04:37:30;49223.09;;;-149.77;40.46
60055;BME280;45930;53.514;55.904;2023-06-10T04:38:32;49223.09;;;-149.77;40.56
60055;BME280;45930;53.514;55.904;2023-06-10T04:39:33;49250.81;;;-149.77;40.33
60055;BME280;45930;53.514;55.904;2023-06-10T04:40:34;49248.84;;;-149.77;40.46
60055;BME280;45930;53.514;55.904;2023-06-10T04:41:35;49234.97;;;-149.77;40.49
60055;BME280;45930;53.514;55.904;2023-06-10T04:42:36;49254.78;;;-149.77;40.70
60055;BME280;45930;53.514;55.904;2023-06-10T04:43:37;49240.91;;;-149.77;40.83
60055;BME280;45930;53.514;55.904;2023-06-10T04:44:37;49244.88;;;-149.77;40.98
60055;BME280;45930;53.514;55.904;2023-06-10T04:45:39;49236.94;;;-149.77;40.86
60055;BME280;45930;53.514;55.904;2023-06-10T04:46:40;49193.38;;;-149.77;41.01
60055;BME280;45930;53.514;55.904;2023-06-10T04:47:40;49254.78;;;-149.77;40.87
60055;BME280;45930;53.514;55.904;2023-06-10T04:48:41;49252.78;;;-149.77;40.96
60055;BME280;45930;53.514;55.904;2023-06-10T04:49:42;49238.94;;;-149.77;41.17
60055;BME280;45930;53.514;55.904;2023-06-10T04:50:43;49250.81;;;-149.77;41.24
60055;BME280;45930;53.514;55.904;2023-06-10T04:51:44;49229.03;;;-149.77;41.42
60055;BME280;45930;53.514;55.904;2023-06-10T04:52:45;49234.97;;;-149.77;41.45
60055;BME280;45930;53.514;55.904;2023-06-10T04:53:45;49262.69;;;-149.77;41.41
60055;BME280;45930;53.514;55.904;2023-06-10T04:54:46;49223.09;;;-149.77;41.84
60055;BME280;45930;53.514;55.904;2023-06-10T04:55:48;49225.06;;;-149.77;41.89
60055;BME280;45930;53.514;55.904;2023-06-10T04:56:49;49244.88;;;-149.77;41.82
60055;BME280;45930;53.514;55.904;2023-06-10T04:57:50;49246.84;;;-149.77;41.60
60055;BME280;45930;53.514;55.904;2023-06-10T04:58:51;49244.88;;;-149.77;41.69
60055;BME280;45930;53.514;55.904;2023-06-10T04:59:52;49262.69;;;-149.77;41.57
60055;BME280;45930;53.514;55.904;2023-06-10T05:00:53;49233.00;;;-149.77;41.49
60055;BME280;45930;53.514;55.904;2023-06-10T05:01:54;49236.94;;;-149.77;41.14
60055;BME280;45930;53.514;55.904;2023-06-10T05:02:55;49262.69;;;-149.77;40.96
60055;BME280;45930;53.514;55.904;2023-06-10T05:03:56;49231.00;;;-149.77;40.80
60055;BME280;45930;53.514;55.904;2023-06-10T05:04:57;49282.50;;;-149.77;40.94
60055;BME280;45930;53.514;55.904;2023-06-10T05:05:58;49290.44;;;-149.77;41.03
60055;BME280;45930;53.514;55.904;2023-06-10T05:06:59;49272.59;;;-149.77;40.86
60055;BME280;45930;53.514;55.904;2023-06-10T05:07:59;49284.50;;;-149.77;40.27
60055;BME280;45930;53.514;55.904;2023-06-10T05:09:00;49296.38;;;-149.77;39.98
60055;BME280;45930;53.514;55.904;2023-06-10T05:10:01;49272.59;;;-149.77;39.75
60055;BME280;45930;53.514;55.904;2023-06-10T05:11:04;49258.75;;;-149.77;39.80
60055;BME280;45930;53.514;55.904;2023-06-10T05:12:05;49280.53;;;-149.77;39.45
60055;BME280;45930;53.514;55.904;2023-06-10T05:13:07;49264.69;;;-149.77;39.80
60055;BME280;45930;53.514;55.904;2023-06-10T05:14:07;49278.53;;;-149.77;39.50